createdAt,value
2019-05-12T00:01:32.239Z,9.10
2019-05-12T00:04:02.871Z,9.10
2019-05-12T00:06:33.530Z,9.10
2019-05-12T00:09:08.369Z,9.10
2019-05-12T00:11:39.171Z,9.10
2019-05-12T00:14:09.617Z,9.10
2019-05-12T00:16:40.187Z,9.10
2019-05-12T00:19:10.719Z,9.10
2019-05-12T00:21:41.368Z,9.10
2019-05-12T00:24:11.927Z,9.20
2019-05-12T00:26:43.365Z,9.20
2019-05-12T00:29:13.927Z,9.20
2019-05-12T00:31:44.532Z,9.20
2019-05-12T00:34:15.001Z,9.10
2019-05-12T00:36:48.536Z,9.10
2019-05-12T00:39:19.275Z,9.10
2019-05-12T00:41:49.765Z,9.10
2019-05-12T00:44:20.349Z,9.10
2019-05-12T00:46:51.185Z,9.10
2019-05-12T00:49:21.608Z,9.20
2019-05-12T00:51:52.087Z,9.20
2019-05-12T00:54:22.763Z,9.20
2019-05-12T00:56:54.390Z,9.30
2019-05-12T00:59:24.923Z,9.30
2019-05-12T01:01:55.479Z,9.30
2019-05-12T01:04:26.029Z,9.30
2019-05-12T01:06:58.234Z,9.30
2019-05-12T01:09:28.811Z,9.30
2019-05-12T01:11:59.674Z,9.30
2019-05-12T01:14:30.176Z,9.30
2019-05-12T01:17:00.715Z,9.40
2019-05-12T01:19:32.128Z,9.40
2019-05-12T01:22:02.757Z,9.40
2019-05-12T01:24:33.235Z,9.40
2019-05-12T01:27:04.015Z,9.40
2019-05-12T01:29:34.480Z,9.40
2019-05-12T01:32:22.928Z,9.40
2019-05-12T01:34:53.522Z,9.40
2019-05-12T01:37:24.183Z,9.40
2019-05-12T01:39:59.701Z,9.50
2019-05-12T01:42:28.788Z,9.50
2019-05-12T01:44:59.461Z,9.60
2019-05-12T01:47:30.419Z,9.70
2019-05-12T01:50:01.049Z,9.70
2019-05-12T01:52:33.000Z,9.80
2019-05-12T01:55:03.638Z,9.80
2019-05-12T01:57:34.269Z,9.90
2019-05-12T02:00:08.686Z,10.00
2019-05-12T02:02:39.329Z,10.00
2019-05-12T02:05:11.494Z,10.00
2019-05-12T02:08:00.909Z,10.00
2019-05-12T02:10:32.290Z,10.10
2019-05-12T02:13:02.939Z,10.10
2019-05-12T02:15:33.544Z,10.10
2019-05-12T02:18:03.980Z,10.20
2019-05-12T02:20:34.594Z,10.20
2019-05-12T02:23:05.159Z,10.30
2019-05-12T02:25:37.833Z,10.30
2019-05-12T02:28:09.210Z,10.30
2019-05-12T02:30:41.820Z,10.30
2019-05-12T02:33:15.661Z,10.40
2019-05-12T02:35:44.566Z,10.40
2019-05-12T02:38:15.023Z,10.40
2019-05-12T02:40:45.594Z,10.40
2019-05-12T02:43:16.096Z,10.40
2019-05-12T02:45:46.877Z,10.40
2019-05-12T02:48:17.300Z,10.50
2019-05-12T02:50:48.137Z,10.50
2019-05-12T02:53:18.773Z,10.50
2019-05-12T02:55:54.205Z,10.60
2019-05-12T02:58:25.860Z,10.60
2019-05-12T03:00:58.365Z,10.50
2019-05-12T03:03:34.992Z,10.50
2019-05-12T03:06:05.438Z,10.50
2019-05-12T03:08:37.824Z,10.50
2019-05-12T03:11:08.507Z,10.50
2019-05-12T03:13:39.054Z,10.50
2019-05-12T03:16:09.534Z,10.50
2019-05-12T03:18:39.984Z,10.60
2019-05-12T03:21:10.939Z,10.60
2019-05-12T03:23:44.438Z,10.60
2019-05-12T03:26:15.440Z,10.60
2019-05-12T03:28:46.173Z,10.60
2019-05-12T03:31:23.190Z,10.60
2019-05-12T03:33:52.736Z,10.60
2019-05-12T03:36:21.387Z,10.60
2019-05-12T03:38:54.967Z,10.60
2019-05-12T03:41:25.231Z,10.70
2019-05-12T03:43:55.944Z,10.70
2019-05-12T03:46:26.389Z,10.80
2019-05-12T03:48:56.925Z,10.80
2019-05-12T03:51:27.666Z,10.80
2019-05-12T03:53:58.374Z,10.90
2019-05-12T03:56:29.232Z,10.90
2019-05-12T03:58:59.789Z,10.90
2019-05-12T04:01:30.998Z,11.00
2019-05-12T04:04:04.916Z,10.90
2019-05-12T04:06:34.612Z,10.90
2019-05-12T04:09:08.155Z,10.90
2019-05-12T04:11:38.864Z,10.90
2019-05-12T04:14:09.412Z,10.90
2019-05-12T04:16:40.010Z,10.90
2019-05-12T04:19:10.544Z,11.00
2019-05-12T04:21:44.633Z,11.00
2019-05-12T04:24:14.514Z,11.20
2019-05-12T04:26:45.225Z,11.30
2019-05-12T04:29:15.837Z,11.50
2019-05-12T04:31:46.327Z,11.70
2019-05-12T04:34:19.231Z,11.90
2019-05-12T04:36:49.274Z,12.10
2019-05-12T04:39:19.786Z,12.30
2019-05-12T04:41:50.315Z,12.50
2019-05-12T04:44:20.890Z,12.70
2019-05-12T04:46:51.442Z,12.90
2019-05-12T04:49:24.962Z,13.10
2019-05-12T04:51:55.409Z,13.20
2019-05-12T04:54:25.908Z,13.30
2019-05-12T04:56:57.700Z,13.30
2019-05-12T04:59:28.324Z,13.50
2019-05-12T05:01:58.964Z,13.60
2019-05-12T05:04:29.470Z,13.60
2019-05-12T05:07:00.020Z,13.70
2019-05-12T05:09:30.505Z,13.80
2019-05-12T05:12:04.409Z,13.90
2019-05-12T05:14:34.097Z,14.00
2019-05-12T05:17:05.841Z,14.00
2019-05-12T05:19:36.610Z,14.10
2019-05-12T05:22:07.279Z,13.90
2019-05-12T05:24:37.858Z,13.90
2019-05-12T05:27:08.547Z,14.10
2019-05-12T05:29:39.108Z,14.20
2019-05-12T05:32:09.658Z,14.30
2019-05-12T05:34:40.231Z,14.40
2019-05-12T05:37:10.728Z,14.40
2019-05-12T05:39:47.613Z,14.50
2019-05-12T05:42:13.658Z,14.40
2019-05-12T05:44:44.477Z,14.60
2019-05-12T05:47:14.937Z,14.80
2019-05-12T05:49:45.345Z,14.80
2019-05-12T05:52:15.852Z,14.90
2019-05-12T05:54:46.340Z,15.10
2019-05-12T05:57:19.954Z,15.10
2019-05-12T05:59:49.000Z,15.20
2019-05-12T06:02:23.194Z,15.40
2019-05-12T06:04:54.080Z,15.50
2019-05-12T06:07:34.950Z,15.40
2019-05-12T06:09:57.673Z,15.70
2019-05-12T06:12:28.539Z,15.80
2019-05-12T06:14:59.879Z,15.80
2019-05-12T06:17:31.142Z,15.80
2019-05-12T06:20:04.209Z,16.10
2019-05-12T06:22:34.428Z,16.20
2019-05-12T06:25:05.303Z,16.40
2019-05-12T06:27:37.168Z,16.50
2019-05-12T06:30:08.633Z,16.50
2019-05-12T06:32:41.209Z,16.40
2019-05-12T06:35:11.653Z,16.70
2019-05-12T06:37:44.363Z,16.80
2019-05-12T06:40:14.679Z,16.70
2019-05-12T06:42:48.401Z,16.90
2019-05-12T06:45:17.589Z,17.10
2019-05-12T06:47:49.745Z,17.30
2019-05-12T06:50:20.355Z,17.30
2019-05-12T06:52:52.763Z,17.20
2019-05-12T06:55:23.846Z,17.50
2019-05-12T06:57:54.455Z,17.40
2019-05-12T07:00:30.636Z,17.60
2019-05-12T07:02:57.600Z,17.90
2019-05-12T07:05:32.892Z,18.10
2019-05-12T07:08:00.513Z,18.30
2019-05-12T07:10:39.428Z,18.30
2019-05-12T07:13:05.659Z,18.10
2019-05-12T07:15:40.394Z,18.30
2019-05-12T07:18:13.710Z,18.30
2019-05-12T07:20:44.149Z,18.40
2019-05-12T07:23:19.754Z,18.70
2019-05-12T07:25:46.977Z,18.90
2019-05-12T07:28:18.490Z,18.90
2019-05-12T07:30:49.577Z,19.10
2019-05-12T07:33:23.226Z,19.40
2019-05-12T07:36:00.991Z,19.50
2019-05-12T07:38:29.193Z,19.60
2019-05-12T07:41:00.634Z,19.80
2019-05-12T07:43:33.906Z,19.90
2019-05-12T07:46:07.270Z,20.10
2019-05-12T07:48:40.351Z,20.10
2019-05-12T07:51:13.644Z,20.10
2019-05-12T07:53:46.926Z,20.40
2019-05-12T07:56:19.553Z,20.20
2019-05-12T07:58:54.064Z,20.00
2019-05-12T08:01:23.483Z,20.30
2019-05-12T08:03:59.340Z,20.30
2019-05-12T08:06:25.953Z,20.70
2019-05-12T08:08:58.975Z,20.70
2019-05-12T08:11:36.626Z,20.80
2019-05-12T08:14:03.606Z,21.10
2019-05-12T08:16:36.893Z,21.10
2019-05-12T08:19:08.527Z,21.60
2019-05-12T08:21:43.684Z,21.80
2019-05-12T08:24:14.176Z,21.80
2019-05-12T08:26:44.179Z,22.00
2019-05-12T08:29:16.978Z,22.00
2019-05-12T08:31:47.786Z,21.80
2019-05-12T08:34:19.686Z,22.10
2019-05-12T08:36:53.425Z,22.40
2019-05-12T08:39:25.941Z,22.60
2019-05-12T08:41:56.353Z,22.90
2019-05-12T08:44:33.828Z,22.90
2019-05-12T08:46:59.333Z,23.20
2019-05-12T08:49:34.125Z,23.30
2019-05-12T08:52:03.842Z,23.40
2019-05-12T08:54:39.558Z,23.70
2019-05-12T08:57:07.204Z,23.70
2019-05-12T08:59:38.065Z,23.70
2019-05-12T09:02:10.731Z,24.00
2019-05-12T09:04:45.318Z,24.10
2019-05-12T09:07:14.438Z,24.40
2019-05-12T09:09:45.210Z,24.30
2019-05-12T09:12:16.008Z,24.30
2019-05-12T09:14:46.869Z,24.20
2019-05-12T09:17:17.614Z,24.20
2019-05-12T09:19:48.323Z,24.00
2019-05-12T09:22:21.007Z,23.90
2019-05-12T09:24:53.362Z,23.90
2019-05-12T09:27:24.151Z,23.90
2019-05-12T09:29:59.044Z,23.90
2019-05-12T09:32:28.641Z,24.20
2019-05-12T09:34:59.479Z,24.40
2019-05-12T09:37:30.817Z,24.70
2019-05-12T09:40:04.590Z,24.40
2019-05-12T09:42:35.422Z,24.50
2019-05-12T09:45:10.389Z,24.50
2019-05-12T09:47:38.731Z,24.40
2019-05-12T09:50:15.287Z,24.50
2019-05-12T09:52:44.032Z,24.70
2019-05-12T09:55:15.025Z,24.80
2019-05-12T09:57:46.013Z,25.00
2019-05-12T10:00:17.462Z,25.10
2019-05-12T10:02:51.185Z,25.20
2019-05-12T10:05:20.904Z,25.40
2019-05-12T10:07:53.531Z,25.40
2019-05-12T10:10:24.325Z,25.30
2019-05-12T10:12:55.220Z,25.10
2019-05-12T10:15:28.693Z,24.80
2019-05-12T10:18:00.143Z,24.90
2019-05-12T10:20:35.302Z,25.30
2019-05-12T10:23:04.579Z,25.40
2019-05-12T10:25:35.883Z,25.80
2019-05-12T10:28:11.568Z,26.10
2019-05-12T10:30:39.171Z,26.20
2019-05-12T10:33:10.182Z,26.30
2019-05-12T10:35:41.048Z,26.60
2019-05-12T10:38:13.777Z,26.90
2019-05-12T10:40:47.916Z,27.00
2019-05-12T10:43:17.460Z,27.10
2019-05-12T10:45:48.199Z,27.00
2019-05-12T10:48:19.226Z,27.10
2019-05-12T10:50:50.170Z,27.10
2019-05-12T10:53:20.932Z,27.10
2019-05-12T10:55:51.565Z,27.10
2019-05-12T10:58:24.315Z,27.10
2019-05-12T11:00:58.855Z,27.10
2019-05-12T11:03:28.308Z,27.10
2019-05-12T11:06:02.378Z,27.10
2019-05-12T11:08:33.271Z,27.10
2019-05-12T11:11:04.295Z,27.20
2019-05-12T11:13:35.304Z,27.20
2019-05-12T11:16:06.713Z,27.20
2019-05-12T11:18:37.914Z,27.30
2019-05-12T11:21:08.929Z,27.60
2019-05-12T11:23:39.863Z,27.80
2019-05-12T11:26:10.609Z,27.80
2019-05-12T11:28:41.427Z,28.10
2019-05-12T11:31:13.628Z,28.50
2019-05-12T11:33:44.663Z,29.10
2019-05-12T11:36:15.690Z,29.30
2019-05-12T11:38:46.588Z,29.40
2019-05-12T11:41:20.238Z,29.30
2019-05-12T11:43:50.521Z,28.70
2019-05-12T11:46:23.608Z,28.10
2019-05-12T11:48:54.008Z,27.50
2019-05-12T11:51:29.174Z,27.60
2019-05-12T11:53:58.327Z,27.80
2019-05-12T11:56:29.038Z,28.00
2019-05-12T11:59:00.121Z,28.10
2019-05-12T12:01:31.142Z,28.20
2019-05-12T12:04:03.741Z,28.60
2019-05-12T12:06:34.503Z,28.80
2019-05-12T12:09:09.218Z,29.40
2019-05-12T12:11:40.091Z,30.50
2019-05-12T12:14:10.863Z,31.50
2019-05-12T12:16:49.819Z,32.20
2019-05-12T12:19:14.010Z,33.00
2019-05-12T12:21:49.935Z,33.00
2019-05-12T12:24:21.249Z,32.90
2019-05-12T12:26:50.816Z,32.50
2019-05-12T12:29:23.960Z,32.90
2019-05-12T12:31:56.060Z,33.10
2019-05-12T12:34:30.305Z,32.90
2019-05-12T12:36:59.330Z,32.10
2019-05-12T12:39:30.176Z,31.50
2019-05-12T12:42:01.001Z,30.80
2019-05-12T12:44:33.965Z,29.90
2019-05-12T12:47:04.188Z,29.10
2019-05-12T12:49:34.793Z,28.20
2019-05-12T12:52:05.744Z,27.60
2019-05-12T12:54:36.588Z,27.10
2019-05-12T12:57:09.865Z,26.70
2019-05-12T12:59:45.463Z,26.40
2019-05-12T13:02:14.226Z,26.20
2019-05-12T13:04:50.164Z,26.30
2019-05-12T13:07:18.784Z,26.40
2019-05-12T13:09:55.008Z,26.40
2019-05-12T13:12:22.280Z,26.50
2019-05-12T13:14:53.319Z,26.90
2019-05-12T13:17:29.045Z,28.30
2019-05-12T13:19:58.753Z,29.30
2019-05-12T13:22:29.793Z,29.80
2019-05-12T13:25:06.502Z,30.20
2019-05-12T13:27:36.723Z,31.00
2019-05-12T13:30:06.237Z,30.70
2019-05-12T13:32:38.010Z,31.00
2019-05-12T13:35:09.679Z,30.90
2019-05-12T13:37:43.280Z,30.50
2019-05-12T13:40:15.040Z,29.80
2019-05-12T13:42:45.905Z,29.10
2019-05-12T13:45:17.151Z,28.80
2019-05-12T13:47:48.086Z,28.50
2019-05-12T13:50:26.339Z,28.80
2019-05-12T13:52:54.039Z,29.00
2019-05-12T13:55:24.141Z,29.30
2019-05-12T13:57:57.739Z,29.80
2019-05-12T14:00:27.231Z,29.70
2019-05-12T14:03:04.749Z,29.60
2019-05-12T14:05:30.626Z,29.40
2019-05-12T14:08:03.734Z,28.80
2019-05-12T14:10:37.407Z,27.90
2019-05-12T14:13:07.569Z,27.30
2019-05-12T14:15:38.780Z,26.80
2019-05-12T14:18:10.488Z,26.20
2019-05-12T14:20:44.894Z,25.70
2019-05-12T14:23:15.240Z,25.30
2019-05-12T14:25:46.258Z,25.00
2019-05-12T14:28:17.159Z,24.70
2019-05-12T14:30:51.588Z,24.30
2019-05-12T14:33:20.781Z,24.00
2019-05-12T14:35:53.784Z,23.70
2019-05-12T14:38:29.661Z,23.50
2019-05-12T14:41:01.310Z,23.40
2019-05-12T14:43:29.632Z,23.30
2019-05-12T14:46:06.362Z,23.20
2019-05-12T14:48:33.557Z,23.10
2019-05-12T14:51:04.596Z,23.10
2019-05-12T14:53:38.234Z,23.00
2019-05-12T14:56:08.050Z,22.80
2019-05-12T14:58:38.958Z,22.60
2019-05-12T15:01:09.583Z,22.30
2019-05-12T15:03:42.249Z,22.10
2019-05-12T15:06:14.154Z,21.80
2019-05-12T15:08:45.159Z,21.40
2019-05-12T15:11:15.912Z,21.10
2019-05-12T15:13:47.082Z,20.50
2019-05-12T15:16:17.771Z,19.90
2019-05-12T15:18:51.168Z,19.20
2019-05-12T15:21:27.398Z,18.40
2019-05-12T15:23:54.783Z,17.60
2019-05-12T15:26:25.505Z,16.90
2019-05-12T15:28:56.152Z,16.10
2019-05-12T15:31:26.883Z,15.40
2019-05-12T15:33:57.832Z,14.90
2019-05-12T15:36:28.782Z,14.60
2019-05-12T15:38:59.451Z,14.40
2019-05-12T15:41:30.149Z,14.30
2019-05-12T15:44:03.423Z,14.20
2019-05-12T15:46:41.288Z,14.10
2019-05-12T15:49:08.768Z,13.90
2019-05-12T15:51:51.237Z,13.80
2019-05-12T15:54:14.523Z,13.60
2019-05-12T15:56:44.672Z,13.40
2019-05-12T15:59:17.357Z,13.20
2019-05-12T16:01:47.987Z,13.00
2019-05-12T16:04:18.992Z,12.90
2019-05-12T16:06:55.404Z,12.80
2019-05-12T16:09:23.811Z,12.80
2019-05-12T16:11:54.509Z,12.70
2019-05-12T16:14:30.392Z,12.60
2019-05-12T16:16:59.654Z,12.50
2019-05-12T16:19:30.406Z,12.50
2019-05-12T16:22:03.483Z,12.30
2019-05-12T16:24:34.162Z,12.20
2019-05-12T16:27:05.669Z,12.10
2019-05-12T16:29:39.042Z,12.00
2019-05-12T16:32:22.364Z,11.90
2019-05-12T16:34:44.831Z,11.90
2019-05-12T16:37:14.241Z,11.80
2019-05-12T16:39:47.528Z,11.70
2019-05-12T16:42:17.397Z,11.70
2019-05-12T16:44:56.219Z,11.70
2019-05-12T16:47:29.081Z,11.60
2019-05-12T16:49:57.108Z,11.60
2019-05-12T16:52:33.661Z,11.60
2019-05-12T16:55:00.742Z,11.50
2019-05-12T16:57:33.727Z,11.50
2019-05-12T17:00:07.016Z,11.50
2019-05-12T17:02:41.871Z,11.40
2019-05-12T17:05:15.687Z,11.30
2019-05-12T17:07:44.146Z,11.20
2019-05-12T17:10:16.837Z,11.10
2019-05-12T17:12:49.928Z,11.10
2019-05-12T17:15:23.586Z,11.00
2019-05-12T17:18:01.188Z,10.90
2019-05-12T17:20:33.352Z,10.90
2019-05-12T17:23:09.698Z,10.80
2019-05-12T17:25:47.515Z,10.70
2019-05-12T17:28:24.107Z,10.70
2019-05-12T17:30:59.037Z,10.60
2019-05-12T17:33:33.904Z,10.60
2019-05-12T17:36:12.454Z,10.60
2019-05-12T17:38:55.997Z,10.60
2019-05-12T17:41:31.576Z,10.50
2019-05-12T17:44:06.943Z,10.50
2019-05-12T17:46:45.027Z,10.50
2019-05-12T17:49:29.418Z,10.50
2019-05-12T17:52:12.288Z,10.50
2019-05-12T17:54:43.237Z,10.40
2019-05-12T17:57:23.152Z,10.40
2019-05-12T17:59:59.784Z,10.40
2019-05-12T18:02:34.490Z,10.30
2019-05-12T18:05:16.037Z,10.30
2019-05-12T18:07:50.902Z,10.30
2019-05-12T18:10:26.819Z,10.30
2019-05-12T18:12:59.885Z,10.30
2019-05-12T18:15:37.912Z,10.30
2019-05-12T18:18:06.316Z,10.30
2019-05-12T18:20:41.727Z,10.20
2019-05-12T18:23:14.011Z,10.20
2019-05-12T18:25:47.891Z,10.20
2019-05-12T18:28:27.670Z,10.10
2019-05-12T18:30:59.049Z,10.10
2019-05-12T18:33:37.156Z,10.10
2019-05-12T18:36:07.978Z,10.00
2019-05-12T18:38:40.591Z,10.00
2019-05-12T18:41:13.906Z,9.90
2019-05-12T18:43:46.450Z,9.80
2019-05-12T18:46:18.109Z,9.70
2019-05-12T18:48:54.305Z,9.60
2019-05-12T18:51:28.964Z,9.50
2019-05-12T18:54:10.231Z,9.40
2019-05-12T18:56:39.063Z,9.30
2019-05-12T18:59:15.583Z,9.20
2019-05-12T19:01:45.077Z,9.10
2019-05-12T19:04:18.660Z,9.00
2019-05-12T19:06:54.187Z,8.90
2019-05-12T19:09:27.155Z,8.80
2019-05-12T19:12:03.390Z,8.70
2019-05-12T19:14:40.256Z,8.70
2019-05-12T19:17:13.962Z,8.60
2019-05-12T19:19:46.199Z,8.60
2019-05-12T19:22:24.205Z,8.60
2019-05-12T19:25:00.470Z,8.50
2019-05-12T19:27:34.985Z,8.40
2019-05-12T19:30:07.710Z,8.40
2019-05-12T19:32:44.963Z,8.30
2019-05-12T19:35:20.486Z,8.20
2019-05-12T19:37:53.742Z,8.10
2019-05-12T19:40:26.906Z,8.10
2019-05-12T19:43:03.391Z,8.10
2019-05-12T19:45:33.824Z,8.00
2019-05-12T19:48:08.107Z,8.00
2019-05-12T19:50:44.571Z,7.90
2019-05-12T19:53:15.907Z,7.90
2019-05-12T19:55:47.717Z,7.90
2019-05-12T19:58:18.981Z,7.90
2019-05-12T20:00:50.059Z,7.80
2019-05-12T20:03:20.649Z,7.80
2019-05-12T20:05:53.668Z,7.80
2019-05-12T20:08:23.914Z,7.80
2019-05-12T20:10:54.702Z,7.70
2019-05-12T20:13:29.662Z,7.70
2019-05-12T20:15:59.836Z,7.70
2019-05-12T20:18:34.338Z,7.70
2019-05-12T20:21:04.508Z,7.70
2019-05-12T20:23:35.260Z,7.70
2019-05-12T20:26:06.262Z,7.60
2019-05-12T20:28:42.114Z,7.60
2019-05-12T20:31:09.343Z,7.60
2019-05-12T20:33:40.108Z,7.60
2019-05-12T20:36:10.941Z,7.60
2019-05-12T20:38:44.215Z,7.50
2019-05-12T20:41:21.772Z,7.50
2019-05-12T20:43:47.105Z,7.50
2019-05-12T20:46:21.771Z,7.50
2019-05-12T20:48:53.650Z,7.50
2019-05-12T20:51:26.399Z,7.50
2019-05-12T20:53:56.994Z,7.40
2019-05-12T20:56:27.664Z,7.40
2019-05-12T20:59:22.137Z,7.40
2019-05-12T21:01:48.890Z,7.40
2019-05-12T21:04:22.021Z,7.30
2019-05-12T21:06:53.975Z,7.30
2019-05-12T21:09:23.956Z,7.30
2019-05-12T21:11:54.879Z,7.30
2019-05-12T21:14:25.439Z,7.30
2019-05-12T21:16:56.035Z,7.20
2019-05-12T21:19:29.361Z,7.20
2019-05-12T21:21:59.898Z,7.20
2019-05-12T21:24:37.042Z,7.20
2019-05-12T21:27:03.887Z,7.30
2019-05-12T21:29:34.416Z,7.20
2019-05-12T21:32:12.285Z,7.20
2019-05-12T21:34:37.046Z,7.20
2019-05-12T21:37:07.747Z,7.20
2019-05-12T21:39:40.594Z,7.20
2019-05-12T21:42:10.526Z,7.20
2019-05-12T21:44:46.257Z,7.20
2019-05-12T21:47:13.959Z,7.20
2019-05-12T21:49:48.471Z,7.30
2019-05-12T21:52:16.766Z,7.30
2019-05-12T21:54:48.190Z,7.20
2019-05-12T21:57:31.252Z,7.30
2019-05-12T22:00:04.615Z,7.30
2019-05-12T22:02:35.557Z,7.30
2019-05-12T22:05:06.215Z,7.30
2019-05-12T22:07:39.783Z,7.30
2019-05-12T22:10:09.271Z,7.30
2019-05-12T22:12:39.873Z,7.30
2019-05-12T22:15:21.353Z,7.30
2019-05-12T22:18:11.440Z,7.30
2019-05-12T22:20:44.362Z,7.30
2019-05-12T22:23:15.102Z,7.40
2019-05-12T22:25:49.262Z,7.30
2019-05-12T22:28:18.079Z,7.40
2019-05-12T22:30:48.674Z,7.30
2019-05-12T22:33:19.256Z,7.30
2019-05-12T22:36:01.941Z,7.40
2019-05-12T22:38:21.997Z,7.40
2019-05-12T22:40:57.752Z,7.40
2019-05-12T22:43:24.955Z,7.40
2019-05-12T22:45:55.450Z,7.30
2019-05-12T22:48:29.636Z,7.40
2019-05-12T22:50:58.940Z,7.40
2019-05-12T22:53:30.286Z,7.30
2019-05-12T22:56:03.065Z,7.30
2019-05-12T22:58:33.934Z,7.30
2019-05-12T23:01:05.410Z,7.30
2019-05-12T23:03:36.220Z,7.30
2019-05-12T23:06:20.245Z,7.30
2019-05-12T23:08:47.155Z,7.40
2019-05-12T23:11:14.341Z,7.40
2019-05-12T23:13:43.750Z,7.40
2019-05-12T23:16:14.320Z,7.40
2019-05-12T23:18:44.873Z,7.40
2019-05-12T23:21:17.406Z,7.30
2019-05-12T23:23:49.853Z,7.30
2019-05-12T23:26:24.548Z,7.30
2019-05-12T23:28:55.238Z,7.30
2019-05-12T23:31:29.996Z,7.30
2019-05-12T23:33:58.014Z,7.30
2019-05-12T23:36:35.571Z,7.30
2019-05-12T23:39:02.081Z,7.30
2019-05-12T23:41:34.372Z,7.30
2019-05-12T23:44:05.180Z,7.30
2019-05-12T23:46:35.655Z,7.30
2019-05-12T23:49:06.208Z,7.30
2019-05-12T23:51:36.751Z,7.30
2019-05-12T23:54:07.141Z,7.20
2019-05-12T23:56:38.098Z,7.20
2019-05-12T23:59:08.552Z,7.20
